sensor_id;sensor_type;location;lat;lon;timestamp;temperature;humidity
18794;DHT22;29610;49.022;12.114;2023-08-08T13:37:04;25.00;58.70
18794;DHT22;29610;49.022;12.114;2023-08-08T13:39:54;25.20;61.30
18794;DHT22;29610;49.022;12.114;2023-08-08T13:42:22;25.10;58.60
18794;DHT22;29610;49.022;12.114;2023-08-08T13:44:50;25.00;60.30
18794;DHT22;29610;49.022;12.114;2023-08-08T13:47:21;25.30;59.40
18794;DHT22;29610;49.022;12.114;2023-08-08T13:49:49;25.30;58.50
18794;DHT22;29610;49.022;12.114;2023-08-08T13:52:20;25.20;59.40
18794;DHT22;29610;49.022;12.114;2023-08-08T13:54:48;25.50;58.20
18794;DHT22;29610;49.022;12.114;2023-08-08T13:57:16;25.50;55.90
18794;DHT22;29610;49.022;12.114;2023-08-08T13:59:44;25.20;55.80
18794;DHT22;29610;49.022;12.114;2023-08-08T14:02:12;25.20;56.30
18794;DHT22;29610;49.022;12.114;2023-08-08T14:04:41;25.30;58.20
18794;DHT22;29610;49.022;12.114;2023-08-08T14:07:09;25.10;55.40
18794;DHT22;29610;49.022;12.114;2023-08-08T14:09:39;24.70;55.20
18794;DHT22;29610;49.022;12.114;2023-08-08T14:12:07;24.40;54.90
18794;DHT22;29610;49.022;12.114;2023-08-08T14:14:35;24.30;56.90
18794;DHT22;29610;49.022;12.114;2023-08-08T14:17:04;24.40;55.50
18794;DHT22;29610;49.022;12.114;2023-08-08T14:19:32;24.30;55.80
18794;DHT22;29610;49.022;12.114;2023-08-08T14:22:00;24.30;54.50
18794;DHT22;29610;49.022;12.114;2023-08-08T14:24:29;23.90;55.30
18794;DHT22;29610;49.022;12.114;2023-08-08T14:26:58;23.50;56.40
18794;DHT22;29610;49.022;12.114;2023-08-08T14:29:27;23.50;56.50
18794;DHT22;29610;49.022;12.114;2023-08-08T14:31:55;23.50;57.00
18794;DHT22;29610;49.022;12.114;2023-08-08T14:34:30;23.80;55.20
18794;DHT22;29610;49.022;12.114;2023-08-08T14:37:00;23.70;56.70
18794;DHT22;29610;49.022;12.114;2023-08-08T14:39:29;23.50;57.90
18794;DHT22;29610;49.022;12.114;2023-08-08T14:41:58;23.40;57.70
18794;DHT22;29610;49.022;12.114;2023-08-08T14:44:27;23.30;58.60
18794;DHT22;29610;49.022;12.114;2023-08-08T14:46:55;23.40;59.30
18794;DHT22;29610;49.022;12.114;2023-08-08T14:49:23;23.50;57.70
18794;DHT22;29610;49.022;12.114;2023-08-08T14:51:52;23.50;57.80
18794;DHT22;29610;49.022;12.114;2023-08-08T14:54:21;23.60;60.60
18794;DHT22;29610;49.022;12.114;2023-08-08T14:56:49;23.60;59.10
18794;DHT22;29610;49.022;12.114;2023-08-08T14:59:18;23.50;58.70
18794;DHT22;29610;49.022;12.114;2023-08-08T15:01:46;23.20;58.40
18794;DHT22;29610;49.022;12.114;2023-08-08T15:04:15;23.20;59.30
18794;DHT22;29610;49.022;12.114;2023-08-08T15:06:43;23.20;59.60
18794;DHT22;29610;49.022;12.114;2023-08-08T15:09:11;23.20;57.50
18794;DHT22;29610;49.022;12.114;2023-08-08T15:11:40;23.00;56.60
18794;DHT22;29610;49.022;12.114;2023-08-08T15:14:09;23.10;57.30
18794;DHT22;29610;49.022;12.114;2023-08-08T15:16:38;23.20;57.60
18794;DHT22;29610;49.022;12.114;2023-08-08T15:19:07;23.50;58.00
18794;DHT22;29610;49.022;12.114;2023-08-08T15:21:35;23.30;55.30
18794;DHT22;29610;49.022;12.114;2023-08-08T15:24:03;23.40;57.90
18794;DHT22;29610;49.022;12.114;2023-08-08T15:26:32;23.30;56.20
18794;DHT22;29610;49.022;12.114;2023-08-08T15:29:00;23.10;56.40
18794;DHT22;29610;49.022;12.114;2023-08-08T15:31:28;23.10;55.70
18794;DHT22;29610;49.022;12.114;2023-08-08T15:33:58;23.20;54.50
18794;DHT22;29610;49.022;12.114;2023-08-08T15:36:27;23.10;55.30
18794;DHT22;29610;49.022;12.114;2023-08-08T15:38:55;23.20;56.10
18794;DHT22;29610;49.022;12.114;2023-08-08T15:41:23;23.10;56.10
18794;DHT22;29610;49.022;12.114;2023-08-08T15:43:51;22.90;53.90
18794;DHT22;29610;49.022;12.114;2023-08-08T15:46:20;23.00;54.10
18794;DHT22;29610;49.022;12.114;2023-08-08T15:48:48;22.80;53.30
18794;DHT22;29610;49.022;12.114;2023-08-08T15:51:18;22.50;53.90
18794;DHT22;29610;49.022;12.114;2023-08-08T15:53:46;22.30;53.10
18794;DHT22;29610;49.022;12.114;2023-08-08T15:56:14;22.20;53.10
18794;DHT22;29610;49.022;12.114;2023-08-08T15:58:42;22.20;53.00
18794;DHT22;29610;49.022;12.114;2023-08-08T16:01:11;22.40;53.40
18794;DHT22;29610;49.022;12.114;2023-08-08T16:03:39;22.20;53.50
18794;DHT22;29610;49.022;12.114;2023-08-08T16:06:07;22.30;54.20
18794;DHT22;29610;49.022;12.114;2023-08-08T16:08:36;22.20;53.90
18794;DHT22;29610;49.022;12.114;2023-08-08T16:11:04;22.00;55.30
18794;DHT22;29610;49.022;12.114;2023-08-08T16:13:33;21.90;54.30
18794;DHT22;29610;49.022;12.114;2023-08-08T16:16:01;21.70;54.60
18794;DHT22;29610;49.022;12.114;2023-08-08T16:18:29;21.80;55.00
18794;DHT22;29610;49.022;12.114;2023-08-08T16:20:58;21.60;56.00
18794;DHT22;29610;49.022;12.114;2023-08-08T16:23:27;21.50;53.90
18794;DHT22;29610;49.022;12.114;2023-08-08T16:25:56;21.40;55.00
18794;DHT22;29610;49.022;12.114;2023-08-08T16:28:24;21.40;55.50
18794;DHT22;29610;49.022;12.114;2023-08-08T16:30:52;21.20;54.50
18794;DHT22;29610;49.022;12.114;2023-08-08T16:33:21;21.10;55.60
18794;DHT22;29610;49.022;12.114;2023-08-08T16:35:49;21.00;56.20
18794;DHT22;29610;49.022;12.114;2023-08-08T16:38:18;20.90;56.20
18794;DHT22;29610;49.022;12.114;2023-08-08T16:40:46;20.80;57.20
18794;DHT22;29610;49.022;12.114;2023-08-08T16:43:15;20.80;55.60
18794;DHT22;29610;49.022;12.114;2023-08-08T16:45:44;20.80;55.50
18794;DHT22;29610;49.022;12.114;2023-08-08T16:48:12;20.80;56.30
18794;DHT22;29610;49.022;12.114;2023-08-08T16:50:40;20.90;56.10
18794;DHT22;29610;49.022;12.114;2023-08-08T16:53:08;20.90;56.40
18794;DHT22;29610;49.022;12.114;2023-08-08T16:55:37;20.90;56.80
18794;DHT22;29610;49.022;12.114;2023-08-08T16:58:05;20.90;56.70
18794;DHT22;29610;49.022;12.114;2023-08-08T17:00:34;20.80;56.80
18794;DHT22;29610;49.022;12.114;2023-08-08T17:03:03;20.70;57.30
18794;DHT22;29610;49.022;12.114;2023-08-08T17:05:32;20.70;57.50
18794;DHT22;29610;49.022;12.114;2023-08-08T17:08:02;20.70;57.60
18794;DHT22;29610;49.022;12.114;2023-08-08T17:10:31;20.80;58.30
18794;DHT22;29610;49.022;12.114;2023-08-08T17:12:59;20.80;58.50
18794;DHT22;29610;49.022;12.114;2023-08-08T17:15:28;20.80;58.00
18794;DHT22;29610;49.022;12.114;2023-08-08T17:17:57;20.60;60.10
18794;DHT22;29610;49.022;12.114;2023-08-08T17:20:26;20.40;60.00
18794;DHT22;29610;49.022;12.114;2023-08-08T17:22:54;20.20;59.30
18794;DHT22;29610;49.022;12.114;2023-08-08T17:25:22;20.00;62.00
18794;DHT22;29610;49.022;12.114;2023-08-08T17:27:51;19.80;60.30
18794;DHT22;29610;49.022;12.114;2023-08-08T17:30:19;19.70;59.90
18794;DHT22;29610;49.022;12.114;2023-08-08T17:32:48;19.60;63.10
18794;DHT22;29610;49.022;12.114;2023-08-08T17:35:17;19.40;63.40
18794;DHT22;29610;49.022;12.114;2023-08-08T17:37:46;19.50;61.80
18794;DHT22;29610;49.022;12.114;2023-08-08T17:40:15;19.40;61.70
18794;DHT22;29610;49.022;12.114;2023-08-08T17:42:43;19.30;63.30
18794;DHT22;29610;49.022;12.114;2023-08-08T17:45:11;19.50;62.40
18794;DHT22;29610;49.022;12.114;2023-08-08T17:47:40;19.60;62.00
18794;DHT22;29610;49.022;12.114;2023-08-08T17:50:08;19.80;62.40
18794;DHT22;29610;49.022;12.114;2023-08-08T17:52:38;19.80;63.10
18794;DHT22;29610;49.022;12.114;2023-08-08T17:55:07;19.80;63.10
18794;DHT22;29610;49.022;12.114;2023-08-08T17:57:36;19.90;63.90
18794;DHT22;29610;49.022;12.114;2023-08-08T18:00:05;19.80;63.30
18794;DHT22;29610;49.022;12.114;2023-08-08T18:02:36;19.80;62.90
18794;DHT22;29610;49.022;12.114;2023-08-08T18:05:06;19.70;64.00
18794;DHT22;29610;49.022;12.114;2023-08-08T18:07:34;19.40;64.80
18794;DHT22;29610;49.022;12.114;2023-08-08T18:10:05;19.20;66.40
18794;DHT22;29610;49.022;12.114;2023-08-08T18:12:34;18.90;67.70
18794;DHT22;29610;49.022;12.114;2023-08-08T18:15:03;18.70;70.60
18794;DHT22;29610;49.022;12.114;2023-08-08T18:17:33;18.40;73.10
18794;DHT22;29610;49.022;12.114;2023-08-08T18:20:01;18.20;72.20
18794;DHT22;29610;49.022;12.114;2023-08-08T18:22:29;18.00;73.70
18794;DHT22;29610;49.022;12.114;2023-08-08T18:24:58;17.90;74.70
18794;DHT22;29610;49.022;12.114;2023-08-08T18:27:27;17.80;76.00
18794;DHT22;29610;49.022;12.114;2023-08-08T18:29:55;17.70;76.00
18794;DHT22;29610;49.022;12.114;2023-08-08T18:32:23;17.80;77.00
18794;DHT22;29610;49.022;12.114;2023-08-08T18:34:53;17.60;77.30
18794;DHT22;29610;49.022;12.114;2023-08-08T18:37:21;17.60;77.40
18794;DHT22;29610;49.022;12.114;2023-08-08T18:39:49;17.50;75.70
18794;DHT22;29610;49.022;12.114;2023-08-08T18:42:18;17.50;75.40
18794;DHT22;29610;49.022;12.114;2023-08-08T18:44:47;17.50;75.30
18794;DHT22;29610;49.022;12.114;2023-08-08T18:47:15;17.50;75.20
18794;DHT22;29610;49.022;12.114;2023-08-08T18:49:43;17.50;76.20
18794;DHT22;29610;49.022;12.114;2023-08-08T18:52:11;17.50;76.00
18794;DHT22;29610;49.022;12.114;2023-08-08T18:54:39;17.40;75.80
18794;DHT22;29610;49.022;12.114;2023-08-08T18:57:07;17.40;75.40
18794;DHT22;29610;49.022;12.114;2023-08-08T18:59:36;17.40;76.80
18794;DHT22;29610;49.022;12.114;2023-08-08T19:02:05;17.30;76.30
18794;DHT22;29610;49.022;12.114;2023-08-08T19:04:33;17.30;76.90
18794;DHT22;29610;49.022;12.114;2023-08-08T19:07:01;17.30;78.10
18794;DHT22;29610;49.022;12.114;2023-08-08T19:09:30;17.30;78.90
18794;DHT22;29610;49.022;12.114;2023-08-08T19:11:59;17.20;78.60
18794;DHT22;29610;49.022;12.114;2023-08-08T19:14:28;17.60;79.90
18794;DHT22;29610;49.022;12.114;2023-08-08T19:16:56;17.10;78.50
18794;DHT22;29610;49.022;12.114;2023-08-08T19:19:26;17.10;79.50
18794;DHT22;29610;49.022;12.114;2023-08-08T19:21:54;17.10;79.60
18794;DHT22;29610;49.022;12.114;2023-08-08T19:24:23;17.10;79.90
18794;DHT22;29610;49.022;12.114;2023-08-08T19:26:51;17.00;80.10
18794;DHT22;29610;49.022;12.114;2023-08-08T19:29:20;17.00;80.50
18794;DHT22;29610;49.022;12.114;2023-08-08T19:31:48;16.90;81.80
18794;DHT22;29610;49.022;12.114;2023-08-08T19:34:16;16.80;81.80
18794;DHT22;29610;49.022;12.114;2023-08-08T19:36:46;16.80;83.00
18794;DHT22;29610;49.022;12.114;2023-08-08T19:39:14;16.70;84.00
18794;DHT22;29610;49.022;12.114;2023-08-08T19:41:42;16.60;83.80
18794;DHT22;29610;49.022;12.114;2023-08-08T19:44:10;16.60;83.70
18794;DHT22;29610;49.022;12.114;2023-08-08T19:46:38;16.50;84.50
18794;DHT22;29610;49.022;12.114;2023-08-08T19:49:06;16.40;83.40
18794;DHT22;29610;49.022;12.114;2023-08-08T19:51:35;16.40;83.90
18794;DHT22;29610;49.022;12.114;2023-08-08T19:54:04;16.30;85.50
18794;DHT22;29610;49.022;12.114;2023-08-08T19:56:33;16.20;84.80
18794;DHT22;29610;49.022;12.114;2023-08-08T19:59:01;16.10;85.00
18794;DHT22;29610;49.022;12.114;2023-08-08T20:01:30;16.10;85.60
18794;DHT22;29610;49.022;12.114;2023-08-08T20:03:58;16.00;86.50
18794;DHT22;29610;49.022;12.114;2023-08-08T20:06:26;16.00;87.30
18794;DHT22;29610;49.022;12.114;2023-08-08T20:08:54;16.00;87.40
18794;DHT22;29610;49.022;12.114;2023-08-08T20:11:24;16.10;87.60
18794;DHT22;29610;49.022;12.114;2023-08-08T20:13:52;16.20;85.90
18794;DHT22;29610;49.022;12.114;2023-08-08T20:16:21;16.20;85.90
18794;DHT22;29610;49.022;12.114;2023-08-08T20:18:51;16.20;86.20
18794;DHT22;29610;49.022;12.114;2023-08-08T20:21:20;16.30;86.50
18794;DHT22;29610;49.022;12.114;2023-08-08T20:23:48;16.30;86.30
18794;DHT22;29610;49.022;12.114;2023-08-08T20:26:16;16.30;87.50
18794;DHT22;29610;49.022;12.114;2023-08-08T20:28:46;16.30;87.80
18794;DHT22;29610;49.022;12.114;2023-08-08T20:31:14;16.30;88.20
18794;DHT22;29610;49.022;12.114;2023-08-08T20:33:42;16.30;88.20
18794;DHT22;29610;49.022;12.114;2023-08-08T20:36:12;16.20;87.70
18794;DHT22;29610;49.022;12.114;2023-08-08T20:38:41;16.20;87.20
18794;DHT22;29610;49.022;12.114;2023-08-08T20:41:09;16.20;87.80
18794;DHT22;29610;49.022;12.114;2023-08-08T20:43:37;16.60;88.50
18794;DHT22;29610;49.022;12.114;2023-08-08T20:46:08;16.10;88.40
18794;DHT22;29610;49.022;12.114;2023-08-08T20:48:39;16.10;88.30
18794;DHT22;29610;49.022;12.114;2023-08-08T20:51:07;16.40;90.00
18794;DHT22;29610;49.022;12.114;2023-08-08T20:53:35;16.10;90.10
18794;DHT22;29610;49.022;12.114;2023-08-08T20:56:03;16.00;90.30
18794;DHT22;29610;49.022;12.114;2023-08-08T20:58:31;16.10;89.70
18794;DHT22;29610;49.022;12.114;2023-08-08T21:01:00;16.40;90.00
18794;DHT22;29610;49.022;12.114;2023-08-08T21:03:30;16.40;89.30
18794;DHT22;29610;49.022;12.114;2023-08-08T21:05:58;16.00;89.50
18794;DHT22;29610;49.022;12.114;2023-08-08T21:08:26;16.10;90.10
18794;DHT22;29610;49.022;12.114;2023-08-08T21:11:01;16.00;90.10
18794;DHT22;29610;49.022;12.114;2023-08-08T21:13:29;16.40;90.40
18794;DHT22;29610;49.022;12.114;2023-08-08T21:15:57;16.10;90.70
18794;DHT22;29610;49.022;12.114;2023-08-08T21:18:25;16.10;90.60
18794;DHT22;29610;49.022;12.114;2023-08-08T21:20:55;16.10;90.30
18794;DHT22;29610;49.022;12.114;2023-08-08T21:23:23;16.10;90.30
18794;DHT22;29610;49.022;12.114;2023-08-08T21:25:51;16.00;90.40
18794;DHT22;29610;49.022;12.114;2023-08-08T21:28:20;16.00;90.70
18794;DHT22;29610;49.022;12.114;2023-08-08T21:30:48;16.00;90.80
18794;DHT22;29610;49.022;12.114;2023-08-08T21:33:16;15.90;90.80
18794;DHT22;29610;49.022;12.114;2023-08-08T21:35:44;15.90;91.60
18794;DHT22;29610;49.022;12.114;2023-08-08T21:38:14;15.80;91.10
18794;DHT22;29610;49.022;12.114;2023-08-08T21:40:42;15.80;90.80
18794;DHT22;29610;49.022;12.114;2023-08-08T21:43:10;15.80;91.10
18794;DHT22;29610;49.022;12.114;2023-08-08T21:45:38;15.70;91.70
18794;DHT22;29610;49.022;12.114;2023-08-08T21:48:07;15.70;91.80
18794;DHT22;29610;49.022;12.114;2023-08-08T21:50:35;15.70;91.80
18794;DHT22;29610;49.022;12.114;2023-08-08T21:53:03;16.10;92.20
18794;DHT22;29610;49.022;12.114;2023-08-08T21:55:33;15.60;91.90
18794;DHT22;29610;49.022;12.114;2023-08-08T21:58:01;16.00;92.00
18794;DHT22;29610;49.022;12.114;2023-08-08T22:00:29;15.70;91.80
18794;DHT22;29610;49.022;12.114;2023-08-08T22:02:58;15.60;91.80
18794;DHT22;29610;49.022;12.114;2023-08-08T22:05:26;15.60;91.70
18794;DHT22;29610;49.022;12.114;2023-08-08T22:07:54;15.50;91.60
18794;DHT22;29610;49.022;12.114;2023-08-08T22:10:25;15.40;91.60
18794;DHT22;29610;49.022;12.114;2023-08-08T22:13:01;15.30;91.80
18794;DHT22;29610;49.022;12.114;2023-08-08T22:15:30;15.10;92.10
18794;DHT22;29610;49.022;12.114;2023-08-08T22:18:09;15.00;92.90
18794;DHT22;29610;49.022;12.114;2023-08-08T22:20:39;14.90;93.00
18794;DHT22;29610;49.022;12.114;2023-08-08T22:23:08;14.80;93.10
18794;DHT22;29610;49.022;12.114;2023-08-08T22:25:46;15.00;93.90
18794;DHT22;29610;49.022;12.114;2023-08-08T22:28:17;14.70;93.40
18794;DHT22;29610;49.022;12.114;2023-08-08T22:30:46;14.70;93.80
18794;DHT22;29610;49.022;12.114;2023-08-08T22:33:18;14.70;93.90
18794;DHT22;29610;49.022;12.114;2023-08-08T22:35:47;14.60;93.90
18794;DHT22;29610;49.022;12.114;2023-08-08T22:38:15;14.70;94.60
18794;DHT22;29610;49.022;12.114;2023-08-08T22:40:43;14.60;94.50
18794;DHT22;29610;49.022;12.114;2023-08-08T22:43:14;14.60;94.60
18794;DHT22;29610;49.022;12.114;2023-08-08T22:45:43;15.10;94.60
18794;DHT22;29610;49.022;12.114;2023-08-08T22:48:12;14.70;94.40
18794;DHT22;29610;49.022;12.114;2023-08-08T22:50:40;14.70;94.50
18794;DHT22;29610;49.022;12.114;2023-08-08T22:53:10;14.70;94.60
18794;DHT22;29610;49.022;12.114;2023-08-08T22:55:38;14.70;94.80
18794;DHT22;29610;49.022;12.114;2023-08-08T22:58:06;14.60;95.00
18794;DHT22;29610;49.022;12.114;2023-08-08T23:00:35;14.60;95.40
18794;DHT22;29610;49.022;12.114;2023-08-08T23:03:06;14.50;95.70
18794;DHT22;29610;49.022;12.114;2023-08-08T23:05:34;14.60;96.00
18794;DHT22;29610;49.022;12.114;2023-08-08T23:08:04;14.50;96.30
18794;DHT22;29610;49.022;12.114;2023-08-08T23:10:32;14.50;96.60
18794;DHT22;29610;49.022;12.114;2023-08-08T23:13:00;14.50;97.10
18794;DHT22;29610;49.022;12.114;2023-08-08T23:15:28;14.50;97.10
18794;DHT22;29610;49.022;12.114;2023-08-08T23:17:57;14.50;97.00
18794;DHT22;29610;49.022;12.114;2023-08-08T23:20:26;14.50;97.20
18794;DHT22;29610;49.022;12.114;2023-08-08T23:22:54;14.50;97.20
18794;DHT22;29610;49.022;12.114;2023-08-08T23:25:23;14.50;97.30
18794;DHT22;29610;49.022;12.114;2023-08-08T23:27:51;14.50;97.70
18794;DHT22;29610;49.022;12.114;2023-08-08T23:30:20;14.50;97.70
18794;DHT22;29610;49.022;12.114;2023-08-08T23:32:48;14.50;98.20
18794;DHT22;29610;49.022;12.114;2023-08-08T23:35:21;14.50;98.50
18794;DHT22;29610;49.022;12.114;2023-08-08T23:37:51;14.40;98.60
18794;DHT22;29610;49.022;12.114;2023-08-08T23:40:19;14.50;98.70
18794;DHT22;29610;49.022;12.114;2023-08-08T23:42:47;14.50;98.80
18794;DHT22;29610;49.022;12.114;2023-08-08T23:45:15;14.50;98.80
18794;DHT22;29610;49.022;12.114;2023-08-08T23:47:44;14.60;99.00
18794;DHT22;29610;49.022;12.114;2023-08-08T23:50:12;14.60;99.00
18794;DHT22;29610;49.022;12.114;2023-08-08T23:52:42;14.60;99.20
18794;DHT22;29610;49.022;12.114;2023-08-08T23:55:11;14.70;99.00
18794;DHT22;29610;49.022;12.114;2023-08-08T23:57:39;14.70;98.90
